createdAt,value
2019-03-04T00:00:33.467Z,99.90
2019-03-04T00:03:02.042Z,99.90
2019-03-04T00:05:30.592Z,99.90
2019-03-04T00:07:59.152Z,99.90
2019-03-04T00:10:27.686Z,99.90
2019-03-04T00:12:56.177Z,99.90
2019-03-04T00:15:24.648Z,99.90
2019-03-04T00:17:53.221Z,99.90
2019-03-04T00:20:21.773Z,99.90
2019-03-04T00:22:51.221Z,99.90
2019-03-04T00:25:19.843Z,99.90
2019-03-04T00:27:48.405Z,99.90
2019-03-04T00:30:16.877Z,99.90
2019-03-04T00:32:45.458Z,99.90
2019-03-04T00:35:14.092Z,99.90
2019-03-04T00:37:42.989Z,99.90
2019-03-04T00:40:13.573Z,99.90
2019-03-04T00:42:42.151Z,99.90
2019-03-04T00:45:11.828Z,99.90
2019-03-04T00:47:40.316Z,99.90
2019-03-04T00:50:12.265Z,99.90
2019-03-04T00:52:40.728Z,99.90
2019-03-04T00:55:10.458Z,99.80
2019-03-04T00:57:39.061Z,99.50
2019-03-04T01:00:11.504Z,99.00
2019-03-04T01:02:40.254Z,98.60
2019-03-04T01:05:08.967Z,98.30
2019-03-04T01:07:37.523Z,98.40
2019-03-04T01:10:09.537Z,97.80
2019-03-04T01:12:38.005Z,97.50
2019-03-04T01:15:10.116Z,97.20
2019-03-04T01:18:39.729Z,96.70
2019-03-04T01:21:08.403Z,96.90
2019-03-04T01:23:36.964Z,96.50
2019-03-04T01:26:05.428Z,96.20
2019-03-04T01:28:33.923Z,96.10
2019-03-04T01:31:02.469Z,96.00
2019-03-04T01:33:31.022Z,95.70
2019-03-04T01:35:59.608Z,95.60
2019-03-04T01:38:28.085Z,95.40
2019-03-04T01:40:56.648Z,95.40
2019-03-04T01:43:25.196Z,95.10
2019-03-04T01:45:53.770Z,94.70
2019-03-04T01:48:22.344Z,94.40
2019-03-04T01:50:50.911Z,94.10
2019-03-04T01:53:19.468Z,94.00
2019-03-04T01:55:47.962Z,93.80
2019-03-04T01:58:16.543Z,93.50
2019-03-04T02:00:45.368Z,93.40
2019-03-04T02:03:13.910Z,93.30
2019-03-04T02:05:42.485Z,93.20
2019-03-04T02:08:11.096Z,93.10
2019-03-04T02:10:39.680Z,93.20
2019-03-04T02:13:08.227Z,93.00
2019-03-04T02:15:36.862Z,93.10
2019-03-04T02:18:06.052Z,93.10
2019-03-04T02:20:34.686Z,93.10
2019-03-04T02:23:03.156Z,93.30
2019-03-04T02:25:46.768Z,93.20
2019-03-04T02:28:15.242Z,92.90
2019-03-04T02:30:43.808Z,92.80
2019-03-04T02:33:12.347Z,92.40
2019-03-04T02:35:40.992Z,92.00
2019-03-04T02:38:10.298Z,91.60
2019-03-04T02:40:38.873Z,91.30
2019-03-04T02:43:07.431Z,90.90
2019-03-04T02:45:36.016Z,90.60
2019-03-04T02:48:04.623Z,90.70
2019-03-04T02:50:33.270Z,90.70
2019-03-04T02:53:01.809Z,90.60
2019-03-04T02:55:30.302Z,90.50
2019-03-04T02:57:58.779Z,90.40
2019-03-04T03:00:27.346Z,90.20
2019-03-04T03:02:55.895Z,90.20
2019-03-04T03:05:24.479Z,89.70
2019-03-04T03:07:53.029Z,89.50
2019-03-04T03:10:21.605Z,89.80
2019-03-04T03:12:50.168Z,90.00
2019-03-04T03:15:20.384Z,90.00
2019-03-04T03:17:48.928Z,90.10
2019-03-04T03:20:17.503Z,90.10
2019-03-04T03:22:46.050Z,89.60
2019-03-04T03:25:15.843Z,89.60
2019-03-04T03:27:44.419Z,89.70
2019-03-04T03:30:18.237Z,89.20
2019-03-04T03:32:47.178Z,89.40
2019-03-04T03:35:15.784Z,89.10
2019-03-04T03:37:44.376Z,89.20
2019-03-04T03:40:20.280Z,89.10
2019-03-04T03:42:49.074Z,89.10
2019-03-04T03:45:18.163Z,89.20
2019-03-04T03:47:46.802Z,89.10
2019-03-04T03:50:16.413Z,88.80
2019-03-04T03:52:45.749Z,88.30
2019-03-04T03:55:15.569Z,87.50
2019-03-04T03:57:44.074Z,88.20
2019-03-04T04:00:17.489Z,87.60
2019-03-04T04:02:46.098Z,87.40
2019-03-04T04:05:14.713Z,87.20
2019-03-04T04:07:43.202Z,87.20
2019-03-04T04:10:22.541Z,86.80
2019-03-04T04:12:51.103Z,87.20
2019-03-04T04:15:20.826Z,86.90
2019-03-04T04:17:49.412Z,86.80
2019-03-04T04:20:18.021Z,86.60
2019-03-04T04:22:46.654Z,86.50
2019-03-04T04:25:15.648Z,86.30
2019-03-04T04:27:44.250Z,86.30
2019-03-04T04:30:16.639Z,86.50
2019-03-04T04:32:45.282Z,86.20
2019-03-04T04:35:13.853Z,86.40
2019-03-04T04:37:42.409Z,86.20
2019-03-04T04:40:13.203Z,86.30
2019-03-04T04:42:42.042Z,86.20
2019-03-04T04:45:11.117Z,86.50
2019-03-04T04:47:43.634Z,86.40
2019-03-04T04:50:18.181Z,85.80
2019-03-04T04:52:46.706Z,85.80
2019-03-04T04:55:15.250Z,85.60
2019-03-04T04:57:43.897Z,85.80
2019-03-04T05:00:17.335Z,85.60
2019-03-04T05:02:45.895Z,85.40
2019-03-04T05:05:14.554Z,85.50
2019-03-04T05:07:43.306Z,84.90
2019-03-04T05:10:21.861Z,84.80
2019-03-04T05:12:50.436Z,84.60
2019-03-04T05:15:19.149Z,84.10
2019-03-04T05:17:47.718Z,83.60
2019-03-04T05:20:21.975Z,83.50
2019-03-04T05:22:50.678Z,83.70
2019-03-04T05:25:19.257Z,83.50
2019-03-04T05:27:48.353Z,83.30
2019-03-04T05:30:21.009Z,82.90
2019-03-04T05:32:49.508Z,82.70
2019-03-04T05:35:18.122Z,82.50
2019-03-04T05:37:46.690Z,82.60
2019-03-04T05:40:18.064Z,82.20
2019-03-04T05:42:46.657Z,82.40
2019-03-04T05:45:16.652Z,82.10
2019-03-04T05:47:45.365Z,82.40
2019-03-04T05:50:16.477Z,82.30
2019-03-04T05:52:45.088Z,82.20
2019-03-04T05:55:15.506Z,82.10
2019-03-04T05:57:44.050Z,82.10
2019-03-04T06:00:15.857Z,82.30
2019-03-04T06:02:44.549Z,82.70
2019-03-04T06:05:14.277Z,82.30
2019-03-04T06:07:53.366Z,82.30
2019-03-04T06:10:21.910Z,82.10
2019-03-04T06:12:50.558Z,82.30
2019-03-04T06:15:20.358Z,81.80
2019-03-04T06:17:48.901Z,81.80
2019-03-04T06:20:19.037Z,82.30
2019-03-04T06:22:47.645Z,82.00
2019-03-04T06:25:21.615Z,81.70
2019-03-04T06:27:50.123Z,81.40
2019-03-04T06:30:24.050Z,81.30
2019-03-04T06:32:52.600Z,80.80
2019-03-04T06:35:21.241Z,80.70
2019-03-04T06:37:49.706Z,80.60
2019-03-04T06:40:19.518Z,80.00
2019-03-04T06:42:48.541Z,79.90
2019-03-04T06:45:18.256Z,80.30
2019-03-04T06:47:46.803Z,79.80
2019-03-04T06:50:49.185Z,78.80
2019-03-04T06:53:50.673Z,78.60
2019-03-04T06:56:36.987Z,78.40
2019-03-04T06:59:11.327Z,77.90
2019-03-04T07:01:45.528Z,77.90
2019-03-04T07:04:20.039Z,76.80
2019-03-04T07:06:48.562Z,76.10
2019-03-04T07:09:17.215Z,75.10
2019-03-04T07:11:45.769Z,74.70
2019-03-04T07:14:14.342Z,74.10
2019-03-04T07:16:43.004Z,72.90
2019-03-04T07:19:11.579Z,72.30
2019-03-04T07:21:40.131Z,72.10
2019-03-04T07:24:08.785Z,71.80
2019-03-04T07:26:37.333Z,71.40
2019-03-04T07:29:06.046Z,70.40
2019-03-04T07:31:34.593Z,70.90
2019-03-04T07:34:03.144Z,70.50
2019-03-04T07:36:31.705Z,69.70
2019-03-04T07:39:00.436Z,70.40
2019-03-04T07:41:28.935Z,70.40
2019-03-04T07:43:57.472Z,70.20
2019-03-04T07:46:26.147Z,70.40
2019-03-04T07:48:54.689Z,69.60
2019-03-04T07:51:23.371Z,70.70
2019-03-04T07:53:51.914Z,71.40
2019-03-04T07:56:20.482Z,72.00
2019-03-04T07:58:49.148Z,73.40
2019-03-04T08:01:17.709Z,73.50
2019-03-04T08:03:46.176Z,73.60
2019-03-04T08:06:14.673Z,73.60
2019-03-04T08:09:02.895Z,74.40
2019-03-04T08:11:49.369Z,74.70
2019-03-04T08:14:17.843Z,74.80
2019-03-04T08:16:46.405Z,75.70
2019-03-04T08:19:14.885Z,79.50
2019-03-04T08:21:43.731Z,83.90
2019-03-04T08:24:12.273Z,90.90
2019-03-04T08:26:40.851Z,95.80
2019-03-04T08:29:09.509Z,96.30
2019-03-04T08:31:38.077Z,99.20
2019-03-04T08:34:06.669Z,99.90
2019-03-04T08:36:35.546Z,99.90
2019-03-04T08:39:06.039Z,99.90
2019-03-04T08:41:34.609Z,99.90
2019-03-04T08:44:03.157Z,99.90
2019-03-04T08:46:32.134Z,99.90
2019-03-04T08:49:00.682Z,99.90
2019-03-04T08:51:29.288Z,99.90
2019-03-04T08:53:57.833Z,99.90
2019-03-04T08:56:26.391Z,99.90
2019-03-04T08:58:55.249Z,99.90
2019-03-04T09:01:23.817Z,99.90
2019-03-04T09:03:52.366Z,99.90
2019-03-04T09:06:20.950Z,99.90
2019-03-04T09:08:49.495Z,99.90
2019-03-04T09:11:18.138Z,99.90
2019-03-04T09:13:46.690Z,99.90
2019-03-04T09:16:15.393Z,99.90
2019-03-04T09:18:43.944Z,99.90
2019-03-04T09:21:12.461Z,99.90
2019-03-04T09:23:41.010Z,99.90
2019-03-04T09:26:11.520Z,99.90
2019-03-04T09:28:40.642Z,99.90
2019-03-04T09:31:09.290Z,99.90
2019-03-04T09:33:37.843Z,99.90
2019-03-04T09:36:06.409Z,99.90
2019-03-04T09:38:34.949Z,99.90
2019-03-04T09:41:03.498Z,99.90
2019-03-04T09:43:32.205Z,99.90
2019-03-04T09:46:00.747Z,99.90
2019-03-04T09:48:29.252Z,99.90
2019-03-04T09:50:58.460Z,99.90
2019-03-04T09:53:27.033Z,99.90
2019-03-04T09:55:55.646Z,99.90
2019-03-04T09:58:24.212Z,99.90
2019-03-04T10:00:58.751Z,99.90
2019-03-04T10:03:33.229Z,99.90
2019-03-04T10:06:19.916Z,99.90
2019-03-04T10:09:25.254Z,99.90
2019-03-04T10:12:19.485Z,99.90
2019-03-04T10:15:15.697Z,99.90
2019-03-04T10:18:04.587Z,99.90
2019-03-04T10:20:53.845Z,99.90
2019-03-04T10:23:54.228Z,99.90
2019-03-04T10:26:40.326Z,99.90
2019-03-04T10:29:37.421Z,99.90
2019-03-04T10:32:14.661Z,99.90
2019-03-04T10:35:02.841Z,99.90
2019-03-04T10:37:40.164Z,99.90
2019-03-04T10:40:23.409Z,99.90
2019-03-04T10:43:22.480Z,99.90
2019-03-04T10:46:27.909Z,99.90
2019-03-04T10:48:56.484Z,99.90
2019-03-04T10:51:25.036Z,99.90
2019-03-04T10:53:53.597Z,99.90
2019-03-04T10:56:22.071Z,99.90
2019-03-04T10:58:50.705Z,99.90
2019-03-04T11:01:19.247Z,99.90
2019-03-04T11:03:47.814Z,99.90
2019-03-04T11:06:16.374Z,99.90
2019-03-04T11:08:44.950Z,99.90
2019-03-04T11:11:13.565Z,99.90
2019-03-04T11:13:42.065Z,99.90
2019-03-04T11:16:10.605Z,99.90
2019-03-04T11:18:39.177Z,99.90
2019-03-04T11:21:07.789Z,99.90
2019-03-04T11:23:36.298Z,99.90
2019-03-04T11:26:04.910Z,99.90
2019-03-04T11:28:33.411Z,99.90
2019-03-04T11:31:02.025Z,99.90
2019-03-04T11:33:30.604Z,99.90
2019-03-04T11:35:59.152Z,99.90
2019-03-04T11:38:33.406Z,99.90
2019-03-04T11:41:01.946Z,99.90
2019-03-04T11:43:30.521Z,99.90
2019-03-04T11:45:59.142Z,99.90
2019-03-04T11:48:27.711Z,99.90
2019-03-04T11:50:57.080Z,99.90
2019-03-04T11:53:25.627Z,99.90
2019-03-04T11:55:54.200Z,99.90
2019-03-04T11:58:22.736Z,99.90
2019-03-04T12:01:05.130Z,99.90
2019-03-04T12:03:33.673Z,99.90
2019-03-04T12:06:02.278Z,99.90
2019-03-04T12:08:30.825Z,99.90
2019-03-04T12:10:59.338Z,99.90
2019-03-04T12:13:27.885Z,99.90
2019-03-04T12:15:56.565Z,99.90
2019-03-04T12:18:25.033Z,99.90
2019-03-04T12:20:54.565Z,99.90
2019-03-04T12:23:23.278Z,99.90
2019-03-04T12:25:52.179Z,99.90
2019-03-04T12:28:22.223Z,99.90
2019-03-04T12:30:50.951Z,99.90
2019-03-04T12:33:19.439Z,99.90
2019-03-04T12:35:48.009Z,99.70
2019-03-04T12:38:16.559Z,99.90
2019-03-04T12:40:45.125Z,99.90
2019-03-04T12:43:13.675Z,99.60
2019-03-04T12:45:42.263Z,99.90
2019-03-04T12:48:10.812Z,98.80
2019-03-04T12:50:39.372Z,98.10
2019-03-04T12:53:08.103Z,97.50
2019-03-04T12:55:36.781Z,97.20
2019-03-04T12:58:05.380Z,96.80
2019-03-04T13:00:35.294Z,97.00
2019-03-04T13:03:04.103Z,96.50
2019-03-04T13:05:32.673Z,95.60
2019-03-04T13:08:01.141Z,94.40
2019-03-04T13:10:31.688Z,92.50
2019-03-04T13:12:59.966Z,91.00
2019-03-04T13:15:33.338Z,89.40
2019-03-04T13:18:01.805Z,84.90
2019-03-04T13:20:31.400Z,81.80
2019-03-04T13:23:00.018Z,80.90
2019-03-04T13:25:28.591Z,79.40
2019-03-04T13:27:57.129Z,79.40
2019-03-04T13:30:39.985Z,79.00
2019-03-04T13:33:08.934Z,79.60
2019-03-04T13:35:40.008Z,78.80
2019-03-04T13:38:08.622Z,79.20
2019-03-04T13:40:37.332Z,79.20
2019-03-04T13:43:06.032Z,77.60
2019-03-04T13:45:34.700Z,77.60
2019-03-04T13:48:03.306Z,77.90
2019-03-04T13:50:33.191Z,78.20
2019-03-04T13:53:01.767Z,77.00
2019-03-04T13:55:30.303Z,78.30
2019-03-04T13:57:58.949Z,76.60
2019-03-04T14:00:41.421Z,76.80
2019-03-04T14:03:11.630Z,76.00
2019-03-04T14:05:40.145Z,75.80
2019-03-04T14:08:08.640Z,75.80
2019-03-04T14:10:40.235Z,75.10
2019-03-04T14:13:08.870Z,74.70
2019-03-04T14:15:49.179Z,75.20
2019-03-04T14:18:17.736Z,74.80
2019-03-04T14:20:46.516Z,74.50
2019-03-04T14:23:15.080Z,73.80
2019-03-04T14:25:43.634Z,73.10
2019-03-04T14:28:12.261Z,73.90
2019-03-04T14:30:40.813Z,74.50
2019-03-04T14:33:09.309Z,72.50
2019-03-04T14:35:37.849Z,71.90
2019-03-04T14:38:06.421Z,69.90
2019-03-04T14:40:34.978Z,69.50
2019-03-04T14:43:03.656Z,70.60
2019-03-04T14:45:32.205Z,71.40
2019-03-04T14:48:00.777Z,68.70
2019-03-04T14:50:29.320Z,69.20
2019-03-04T14:52:57.896Z,69.10
2019-03-04T14:55:34.921Z,69.10
2019-03-04T14:58:03.553Z,69.10
2019-03-04T15:00:37.666Z,69.00
2019-03-04T15:03:06.761Z,69.00
2019-03-04T15:05:35.419Z,70.10
2019-03-04T15:08:04.529Z,70.50
2019-03-04T15:10:33.129Z,69.70
2019-03-04T15:13:01.686Z,70.90
2019-03-04T15:15:32.269Z,71.20
2019-03-04T15:18:00.986Z,71.50
2019-03-04T15:20:33.386Z,71.70
2019-03-04T15:23:01.505Z,72.30
2019-03-04T15:25:34.741Z,73.10
2019-03-04T15:28:13.937Z,73.70
2019-03-04T15:30:44.688Z,74.30
2019-03-04T15:33:18.228Z,75.20
2019-03-04T15:35:43.993Z,76.20
2019-03-04T15:38:12.499Z,76.70
2019-03-04T15:40:41.045Z,77.80
2019-03-04T15:43:09.541Z,77.80
2019-03-04T15:45:40.166Z,79.60
2019-03-04T15:48:08.869Z,85.70
2019-03-04T15:50:37.336Z,95.00
2019-03-04T15:53:05.979Z,99.90
2019-03-04T15:55:34.517Z,99.90
2019-03-04T15:58:03.255Z,99.90
2019-03-04T16:00:32.148Z,99.90
2019-03-04T16:03:00.794Z,99.90
2019-03-04T16:05:29.397Z,99.90
2019-03-04T16:08:07.032Z,99.90
2019-03-04T16:10:32.197Z,99.90
2019-03-04T16:13:00.999Z,99.90
2019-03-04T16:15:29.674Z,99.90
2019-03-04T16:17:58.340Z,99.90
2019-03-04T16:20:27.025Z,99.90
2019-03-04T16:22:56.154Z,99.90
2019-03-04T16:25:25.350Z,99.90
2019-03-04T16:27:59.722Z,99.90
2019-03-04T16:30:28.321Z,99.90
2019-03-04T16:32:56.793Z,99.90
2019-03-04T16:35:25.442Z,99.90
2019-03-04T16:37:53.984Z,99.90
2019-03-04T16:40:23.802Z,99.90
2019-03-04T16:42:52.333Z,99.90
2019-03-04T16:45:23.113Z,99.90
2019-03-04T16:47:51.667Z,99.90
2019-03-04T16:50:32.531Z,99.90
2019-03-04T16:53:09.868Z,99.90
2019-03-04T16:55:38.426Z,99.90
2019-03-04T16:58:06.989Z,99.90
2019-03-04T17:00:35.540Z,99.90
2019-03-04T17:03:04.173Z,99.90
2019-03-04T17:05:32.715Z,99.90
2019-03-04T17:08:01.629Z,99.90
2019-03-04T17:10:30.256Z,99.90
2019-03-04T17:12:59.288Z,99.90
2019-03-04T17:15:28.004Z,99.90
2019-03-04T17:17:56.556Z,99.90
2019-03-04T17:20:25.108Z,99.90
2019-03-04T17:22:53.575Z,99.90
2019-03-04T17:25:24.307Z,99.90
2019-03-04T17:27:52.975Z,99.90
2019-03-04T17:30:25.337Z,99.90
2019-03-04T17:32:53.871Z,99.90
2019-03-04T17:35:23.180Z,99.90
2019-03-04T17:37:51.794Z,99.90
2019-03-04T17:40:26.216Z,99.90
2019-03-04T17:42:54.748Z,99.90
2019-03-04T17:45:24.777Z,99.90
2019-03-04T17:47:53.450Z,99.90
2019-03-04T17:50:33.224Z,99.90
2019-03-04T17:53:02.966Z,99.90
2019-03-04T17:55:31.524Z,99.90
2019-03-04T17:58:00.074Z,99.90
2019-03-04T18:00:28.919Z,99.90
2019-03-04T18:02:57.469Z,99.90
2019-03-04T18:05:26.017Z,99.90
2019-03-04T18:07:54.567Z,99.90
2019-03-04T18:10:23.205Z,99.90
2019-03-04T18:12:53.590Z,99.90
2019-03-04T18:15:30.369Z,99.90
2019-03-04T18:17:58.836Z,99.90
2019-03-04T18:20:34.519Z,99.90
2019-03-04T18:22:57.585Z,99.90
2019-03-04T18:25:37.912Z,99.90
2019-03-04T18:28:15.174Z,99.90
2019-03-04T18:30:49.588Z,99.90
2019-03-04T18:33:32.613Z,99.90
2019-03-04T18:36:34.164Z,99.90
2019-03-04T18:39:23.593Z,99.90
2019-03-04T18:41:57.653Z,99.90
2019-03-04T18:44:41.301Z,99.90
2019-03-04T18:47:28.025Z,99.90
2019-03-04T18:49:56.586Z,99.90
2019-03-04T18:52:25.136Z,99.90
2019-03-04T18:54:53.879Z,99.90
2019-03-04T18:57:22.505Z,99.90
2019-03-04T18:59:51.114Z,99.90
2019-03-04T19:02:20.001Z,99.90
2019-03-04T19:04:48.559Z,99.90
2019-03-04T19:07:17.128Z,99.90
2019-03-04T19:09:45.677Z,99.90
2019-03-04T19:12:14.252Z,99.90
2019-03-04T19:14:42.795Z,99.90
2019-03-04T19:17:11.372Z,99.90
2019-03-04T19:19:39.917Z,99.90
2019-03-04T19:22:08.475Z,99.90
2019-03-04T19:24:37.001Z,99.90
2019-03-04T19:27:05.577Z,99.90
2019-03-04T19:29:34.041Z,99.90
2019-03-04T19:32:02.530Z,99.90
2019-03-04T19:34:31.004Z,99.90
2019-03-04T19:36:59.569Z,99.90
2019-03-04T19:39:28.105Z,99.90
2019-03-04T19:41:56.733Z,99.90
2019-03-04T19:44:25.281Z,99.90
2019-03-04T19:46:53.760Z,99.90
2019-03-04T19:49:22.223Z,99.90
2019-03-04T19:51:51.069Z,99.90
2019-03-04T19:54:19.674Z,99.90
2019-03-04T19:56:48.237Z,99.90
2019-03-04T19:59:16.800Z,99.90
2019-03-04T20:01:45.359Z,99.90
2019-03-04T20:04:13.958Z,99.90
2019-03-04T20:06:42.666Z,99.90
2019-03-04T20:09:11.398Z,99.90
2019-03-04T20:11:40.097Z,99.90
2019-03-04T20:14:08.801Z,99.90
2019-03-04T20:16:37.375Z,99.90
2019-03-04T20:19:05.917Z,99.90
2019-03-04T20:21:34.548Z,99.90
2019-03-04T20:24:03.089Z,99.90
2019-03-04T20:26:31.835Z,99.90
2019-03-04T20:29:00.395Z,99.90
2019-03-04T20:31:29.037Z,99.90
2019-03-04T20:33:57.723Z,99.90
2019-03-04T20:36:26.291Z,99.90
2019-03-04T20:38:54.835Z,99.90
2019-03-04T20:41:23.854Z,99.90
2019-03-04T20:43:52.384Z,99.90
2019-03-04T20:46:21.351Z,99.90
2019-03-04T20:48:49.894Z,99.90
2019-03-04T20:51:18.531Z,99.90
2019-03-04T20:53:47.317Z,99.90
2019-03-04T20:56:15.822Z,99.90
2019-03-04T20:58:44.361Z,99.90
2019-03-04T21:01:13.214Z,99.90
2019-03-04T21:03:42.019Z,99.90
2019-03-04T21:06:10.627Z,99.90
2019-03-04T21:08:39.372Z,99.90
2019-03-04T21:11:08.082Z,99.90
2019-03-04T21:13:36.883Z,99.90
2019-03-04T21:16:05.872Z,99.90
2019-03-04T21:18:34.498Z,99.90
2019-03-04T21:21:03.409Z,99.90
2019-03-04T21:23:32.171Z,99.90
2019-03-04T21:26:21.408Z,99.90
2019-03-04T21:29:01.569Z,99.90
2019-03-04T21:31:50.989Z,99.90
2019-03-04T21:34:28.591Z,99.90
2019-03-04T21:37:09.010Z,99.90
2019-03-04T21:39:48.298Z,99.90
2019-03-04T21:42:25.517Z,99.90
2019-03-04T21:45:16.255Z,99.90
2019-03-04T21:47:53.940Z,99.90
2019-03-04T21:50:37.446Z,99.90
2019-03-04T21:53:09.153Z,99.90
2019-03-04T21:55:56.065Z,99.90
2019-03-04T21:58:24.809Z,99.90
2019-03-04T22:00:56.097Z,99.90
2019-03-04T22:03:24.834Z,99.90
2019-03-04T22:05:53.368Z,99.90
2019-03-04T22:08:22.325Z,99.90
2019-03-04T22:10:50.956Z,99.90
2019-03-04T22:13:19.774Z,99.90
2019-03-04T22:15:48.308Z,99.90
2019-03-04T22:18:17.138Z,99.90
2019-03-04T22:20:45.849Z,99.90
2019-03-04T22:23:14.481Z,99.90
2019-03-04T22:25:43.031Z,99.90
2019-03-04T22:28:11.596Z,99.90
2019-03-04T22:30:40.305Z,99.90
2019-03-04T22:33:09.839Z,99.90
2019-03-04T22:35:38.418Z,99.90
2019-03-04T22:38:08.797Z,99.90
2019-03-04T22:40:37.269Z,99.90
2019-03-04T22:43:05.933Z,99.90
2019-03-04T22:45:34.494Z,99.90
2019-03-04T22:48:03.131Z,99.90
2019-03-04T22:50:31.679Z,99.90
2019-03-04T22:53:00.241Z,99.90
2019-03-04T22:55:31.327Z,99.90
2019-03-04T22:57:59.893Z,99.90
2019-03-04T23:00:54.389Z,99.90
2019-03-04T23:03:24.850Z,99.90
2019-03-04T23:06:19.148Z,99.90
2019-03-04T23:08:47.781Z,99.90
2019-03-04T23:11:16.250Z,99.90
2019-03-04T23:14:05.623Z,99.90
2019-03-04T23:16:34.241Z,99.90
2019-03-04T23:19:02.813Z,99.90
2019-03-04T23:21:31.425Z,99.90
2019-03-04T23:23:59.995Z,99.90
2019-03-04T23:26:28.542Z,99.90
2019-03-04T23:28:57.040Z,99.90
2019-03-04T23:31:25.501Z,99.90
2019-03-04T23:33:54.069Z,99.90
2019-03-04T23:36:22.605Z,99.90
2019-03-04T23:38:51.177Z,99.90
2019-03-04T23:41:19.733Z,99.90
2019-03-04T23:43:48.293Z,99.90
2019-03-04T23:46:16.824Z,99.90
2019-03-04T23:48:45.338Z,99.90
2019-03-04T23:51:14.802Z,99.90
2019-03-04T23:53:43.369Z,99.90
2019-03-04T23:56:11.924Z,99.90
2019-03-04T23:58:40.457Z,99.90
